Portada
METAR-TAF:

METAR-TAF

Aeroports :

Lahr, Alemanya

latitud: 48-22-09N, longitud: 007-49-40E, altitud: 156 m

Observació

L'informe es va fer fa 16 hores i 1 minuts, a les 18:50 UTC
Vent 3 kt amb direcció variable
Temperatura 1°C
Humitat 86%
Pressió 1023 hPa
Visibilitat 10 km o més
sense núvols per sota de 1500 mi sense presència de cumulonimbus.

METAR: EDTL 241850Z VRB03KT CAVOK 01/M01 Q1023

Hora: 11:51 (10:51 UTC)

Pronòstic

L'informe es va fer fa 17 hores i 51 minuts, a les 17:00 UTC
Pronòstic vàlid del 24 a les 18 UTC al 24 a les 24 UTC
Vent 3 kt amb direcció variable
Visibilitat: 8000 m
Temporalment
l' 24 a les 18 UTC al 24 a les 20 UTC
Visibilitat: 3000 m
boirina
Evolucionant progressivament
l' 24 a les 20 UTC al 24 a les 24 UTC
Visibilitat: 0400 m
a una alçada menor de 100 ft
boira

TAF: EDTL 241700Z 2418/2424 VRB03KT 8000 NSC TEMPO 2418/2420 3000 BR BECMG 2420/2424 0400 FG VV000

Observacions i pronòstics meteorològics de més de 4000 aeroports (METAR i TAF).

Les estacions disponibles són els punts grocs i vermells al mapa.

Posi el ratolí al punt desitjat per veure el nom de l'estació.

Feu clic per veure les observacions i els pronòstics meteorològics.

Per canviar el mapa: feu clic els botons verds amb una creu de color negre per apropar; al botó verd amb un guió per allunyar la imatge; o en les fletxes verdes per a mapes adjacents.


METAR-TAF: